createdAt,value
2019-01-02T00:00:08.163Z,3.20
2019-01-02T00:01:15.953Z,3.21
2019-01-02T00:02:18.518Z,3.21
2019-01-02T00:03:24.693Z,3.19
2019-01-02T00:04:30.979Z,3.18
2019-01-02T00:05:41.477Z,3.19
2019-01-02T00:06:44.408Z,3.15
2019-01-02T00:07:47.752Z,3.15
2019-01-02T00:08:50.577Z,3.17
2019-01-02T00:09:53.391Z,3.19
2019-01-02T00:11:02.883Z,3.19
2019-01-02T00:12:05.738Z,3.18
2019-01-02T00:13:09.294Z,3.19
2019-01-02T00:14:12.540Z,3.21
2019-01-02T00:15:15.368Z,3.21
2019-01-02T00:16:18.442Z,3.26
2019-01-02T00:17:23.641Z,3.27
2019-01-02T00:18:30.463Z,3.29
2019-01-02T00:19:33.080Z,3.27
2019-01-02T00:20:36.386Z,3.27
2019-01-02T00:21:39.163Z,3.27
2019-01-02T00:22:43.386Z,3.27
2019-01-02T00:23:49.448Z,3.23
2019-01-02T00:24:52.943Z,3.25
2019-01-02T00:25:55.870Z,3.25
2019-01-02T00:27:02.229Z,3.27
2019-01-02T00:28:07.466Z,3.28
2019-01-02T00:29:10.327Z,3.24
2019-01-02T00:30:13.243Z,3.27
2019-01-02T00:31:18.153Z,3.27
2019-01-02T00:32:21.017Z,3.27
2019-01-02T00:33:24.281Z,3.26
2019-01-02T00:34:27.590Z,3.26
2019-01-02T00:35:30.814Z,3.26
2019-01-02T00:36:34.016Z,3.26
2019-01-02T00:37:37.711Z,3.26
2019-01-02T00:38:40.705Z,3.25
2019-01-02T00:39:44.441Z,3.24
2019-01-02T00:40:47.597Z,3.22
2019-01-02T00:41:50.456Z,3.18
2019-01-02T00:42:56.117Z,3.18
2019-01-02T00:43:59.665Z,3.17
2019-01-02T00:45:02.506Z,3.22
2019-01-02T00:46:05.940Z,3.21
2019-01-02T00:47:09.036Z,3.21
2019-01-02T00:48:12.285Z,3.18
2019-01-02T00:49:18.433Z,3.18
2019-01-02T00:50:24.883Z,3.19
2019-01-02T00:51:27.747Z,3.17
2019-01-02T00:52:31.612Z,3.17
2019-01-02T00:53:34.510Z,3.15
2019-01-02T00:54:37.434Z,3.14
2019-01-02T00:55:40.545Z,3.15
2019-01-02T00:56:43.815Z,3.10
2019-01-02T00:57:47.228Z,3.10
2019-01-02T00:58:51.910Z,3.12
2019-01-02T00:59:54.804Z,3.12
2019-01-02T01:00:57.998Z,3.12
2019-01-02T01:02:01.269Z,3.14
2019-01-02T01:03:04.494Z,3.12
2019-01-02T01:04:08.056Z,3.06
2019-01-02T01:05:12.948Z,3.06
2019-01-02T01:06:16.453Z,3.06
2019-01-02T01:07:19.408Z,3.09
2019-01-02T01:08:22.225Z,3.08
2019-01-02T01:09:25.453Z,3.08
2019-01-02T01:10:28.216Z,3.09
2019-01-02T01:11:31.495Z,3.07
2019-01-02T01:12:34.752Z,3.06
2019-01-02T01:13:37.728Z,3.04
2019-01-02T01:14:41.000Z,3.03
2019-01-02T01:15:44.110Z,3.03
2019-01-02T01:16:47.009Z,3.03
2019-01-02T01:17:50.960Z,3.01
2019-01-02T01:18:53.876Z,2.99
2019-01-02T01:19:56.707Z,2.97
2019-01-02T01:21:00.169Z,2.95
2019-01-02T01:22:03.092Z,2.91
2019-01-02T01:23:06.004Z,2.90
2019-01-02T01:24:09.574Z,2.90
2019-01-02T01:25:12.515Z,2.90
2019-01-02T01:26:15.889Z,2.87
2019-01-02T01:27:19.126Z,2.84
2019-01-02T01:28:22.014Z,2.84
2019-01-02T01:29:25.016Z,2.80
2019-01-02T01:30:28.532Z,2.79
2019-01-02T01:31:31.474Z,2.79
2019-01-02T01:32:34.392Z,2.76
2019-01-02T01:33:37.300Z,2.75
2019-01-02T01:34:40.447Z,2.75
2019-01-02T01:35:43.272Z,2.69
2019-01-02T01:36:46.496Z,2.71
2019-01-02T01:37:49.786Z,2.74
2019-01-02T01:38:53.193Z,2.74
2019-01-02T01:39:56.039Z,2.67
2019-01-02T01:40:59.328Z,2.70
2019-01-02T01:42:02.292Z,2.69
2019-01-02T01:43:05.468Z,2.70
2019-01-02T01:44:08.792Z,2.66
2019-01-02T01:45:11.663Z,2.69
2019-01-02T01:46:17.405Z,2.69
2019-01-02T01:47:20.667Z,2.73
2019-01-02T01:48:26.466Z,2.77
2019-01-02T01:49:29.709Z,2.78
2019-01-02T01:50:32.626Z,2.78
2019-01-02T01:51:35.792Z,2.72
2019-01-02T01:52:38.642Z,2.73
2019-01-02T01:53:41.537Z,2.65
2019-01-02T01:54:44.734Z,2.65
2019-01-02T01:55:47.898Z,2.74
2019-01-02T01:56:50.736Z,2.72
2019-01-02T01:57:53.756Z,2.76
2019-01-02T01:58:56.569Z,2.76
2019-01-02T01:59:59.459Z,2.74
2019-01-02T02:01:03.514Z,2.78
2019-01-02T02:02:07.348Z,2.81
2019-01-02T02:03:10.528Z,2.79
2019-01-02T02:04:13.812Z,2.84
2019-01-02T02:05:16.707Z,2.84
2019-01-02T02:06:19.467Z,2.86
2019-01-02T02:07:22.303Z,2.86
2019-01-02T02:08:25.425Z,2.79
2019-01-02T02:09:28.372Z,2.76
2019-01-02T02:10:31.349Z,2.76
2019-01-02T02:11:34.514Z,2.74
2019-01-02T02:12:37.404Z,2.74
2019-01-02T02:13:40.292Z,2.76
2019-01-02T02:14:43.619Z,2.76
2019-01-02T02:15:46.737Z,2.81
2019-01-02T02:16:49.602Z,2.82
2019-01-02T02:17:52.723Z,2.88
2019-01-02T02:18:55.650Z,2.88
2019-01-02T02:19:58.413Z,2.88
2019-01-02T02:21:01.952Z,2.88
2019-01-02T02:22:04.827Z,2.88
2019-01-02T02:23:07.673Z,2.89
2019-01-02T02:24:10.980Z,2.89
2019-01-02T02:25:14.061Z,2.87
2019-01-02T02:26:16.867Z,2.88
2019-01-02T02:27:20.340Z,2.90
2019-01-02T02:28:23.253Z,2.89
2019-01-02T02:29:26.555Z,2.88
2019-01-02T02:30:29.777Z,2.88
2019-01-02T02:31:32.588Z,2.89
2019-01-02T02:32:35.735Z,2.89
2019-01-02T02:33:38.855Z,2.92
2019-01-02T02:34:42.547Z,2.95
2019-01-02T02:35:45.503Z,2.96
2019-01-02T02:36:48.786Z,2.96
2019-01-02T02:37:51.938Z,2.96
2019-01-02T02:38:54.944Z,2.96
2019-01-02T02:39:59.688Z,2.98
2019-01-02T02:41:03.185Z,2.98
2019-01-02T02:42:06.258Z,3.01
2019-01-02T02:43:09.358Z,2.98
2019-01-02T02:44:12.134Z,2.98
2019-01-02T02:45:15.763Z,2.94
2019-01-02T02:46:19.366Z,2.96
2019-01-02T02:47:22.258Z,2.99
2019-01-02T02:48:25.412Z,2.99
2019-01-02T02:49:28.619Z,3.01
2019-01-02T02:50:31.468Z,3.01
2019-01-02T02:51:36.871Z,3.01
2019-01-02T02:52:39.510Z,2.95
2019-01-02T02:53:42.307Z,2.95
2019-01-02T02:54:46.842Z,2.88
2019-01-02T02:55:50.938Z,2.89
2019-01-02T02:56:54.624Z,2.92
2019-01-02T02:57:58.094Z,2.92
2019-01-02T02:59:00.972Z,2.95
2019-01-02T03:00:04.043Z,3.00
2019-01-02T03:01:06.971Z,3.00
2019-01-02T03:02:10.114Z,3.01
2019-01-02T03:03:13.274Z,3.00
2019-01-02T03:04:16.545Z,3.01
2019-01-02T03:05:19.716Z,3.01
2019-01-02T03:06:24.087Z,3.02
2019-01-02T03:07:27.237Z,3.03
2019-01-02T03:08:30.639Z,3.05
2019-01-02T03:09:34.301Z,3.05
2019-01-02T03:10:37.495Z,3.04
2019-01-02T03:11:40.671Z,3.05
2019-01-02T03:12:46.038Z,3.05
2019-01-02T03:13:49.268Z,3.05
2019-01-02T03:14:52.379Z,3.04
2019-01-02T03:15:55.400Z,3.10
2019-01-02T03:17:01.889Z,3.10
2019-01-02T03:18:04.980Z,3.08
2019-01-02T03:19:07.918Z,3.07
2019-01-02T03:20:11.079Z,3.07
2019-01-02T03:21:14.197Z,3.07
2019-01-02T03:22:17.044Z,3.01
2019-01-02T03:23:20.472Z,3.05
2019-01-02T03:24:23.382Z,3.02
2019-01-02T03:25:26.253Z,3.02
2019-01-02T03:26:29.387Z,3.05
2019-01-02T03:27:32.159Z,3.04
2019-01-02T03:28:35.742Z,3.01
2019-01-02T03:29:42.347Z,2.97
2019-01-02T03:30:48.244Z,2.97
2019-01-02T03:31:51.572Z,2.97
2019-01-02T03:32:54.824Z,2.98
2019-01-02T03:33:57.949Z,2.97
2019-01-02T03:35:00.721Z,2.97
2019-01-02T03:36:03.868Z,3.00
2019-01-02T03:37:06.624Z,2.94
2019-01-02T03:38:09.536Z,2.98
2019-01-02T03:39:12.761Z,2.98
2019-01-02T03:40:15.879Z,3.01
2019-01-02T03:41:18.973Z,2.97
2019-01-02T03:42:23.261Z,2.97
2019-01-02T03:43:26.037Z,2.97
2019-01-02T03:44:28.844Z,2.97
2019-01-02T03:45:31.765Z,3.00
2019-01-02T03:46:34.723Z,2.98
2019-01-02T03:47:37.626Z,2.98
2019-01-02T03:48:40.717Z,2.99
2019-01-02T03:49:43.677Z,3.00
2019-01-02T03:50:46.664Z,2.97
2019-01-02T03:51:49.515Z,2.97
2019-01-02T03:52:52.909Z,2.99
2019-01-02T03:53:57.887Z,3.02
2019-01-02T03:55:01.205Z,3.02
2019-01-02T03:56:04.188Z,2.98
2019-01-02T03:57:07.338Z,2.98
2019-01-02T03:58:10.111Z,2.96
2019-01-02T03:59:13.021Z,2.96
2019-01-02T04:00:16.045Z,2.94
2019-01-02T04:01:19.446Z,2.92
2019-01-02T04:02:22.354Z,2.92
2019-01-02T04:03:25.138Z,2.85
2019-01-02T04:04:28.251Z,2.83
2019-01-02T04:05:31.066Z,2.81
2019-01-02T04:06:33.848Z,2.79
2019-01-02T04:07:37.005Z,2.80
2019-01-02T04:08:40.726Z,2.79
2019-01-02T04:09:43.577Z,2.80
2019-01-02T04:10:46.518Z,2.77
2019-01-02T04:11:49.334Z,2.71
2019-01-02T04:12:52.159Z,2.64
2019-01-02T04:13:55.496Z,2.64
2019-01-02T04:14:58.317Z,2.36
2019-01-02T04:16:01.222Z,2.24
2019-01-02T04:17:04.029Z,2.19
2019-01-02T04:18:06.786Z,2.15
2019-01-02T04:19:09.567Z,2.11
2019-01-02T04:20:12.897Z,2.10
2019-01-02T04:21:15.754Z,2.08
2019-01-02T04:22:18.522Z,2.04
2019-01-02T04:23:21.321Z,2.02
2019-01-02T04:24:24.695Z,2.02
2019-01-02T04:25:27.473Z,2.00
2019-01-02T04:26:30.625Z,2.00
2019-01-02T04:27:34.058Z,1.98
2019-01-02T04:28:37.059Z,1.95
2019-01-02T04:29:39.843Z,1.98
2019-01-02T04:30:42.735Z,1.99
2019-01-02T04:31:45.518Z,2.08
2019-01-02T04:32:48.627Z,2.10
2019-01-02T04:33:53.746Z,2.13
2019-01-02T04:34:57.387Z,2.13
2019-01-02T04:36:00.327Z,2.20
2019-01-02T04:37:03.400Z,2.19
2019-01-02T04:38:06.178Z,2.21
2019-01-02T04:39:09.760Z,2.17
2019-01-02T04:40:13.153Z,2.22
2019-01-02T04:41:16.059Z,2.22
2019-01-02T04:42:18.946Z,2.27
2019-01-02T04:43:23.790Z,2.28
2019-01-02T04:44:26.778Z,2.33
2019-01-02T04:45:29.987Z,2.33
2019-01-02T04:46:32.891Z,2.34
2019-01-02T04:47:35.779Z,2.38
2019-01-02T04:48:38.649Z,2.41
2019-01-02T04:49:41.442Z,2.42
2019-01-02T04:50:44.341Z,2.42
2019-01-02T04:51:48.251Z,2.43
2019-01-02T04:52:51.070Z,2.45
2019-01-02T04:53:53.954Z,2.51
2019-01-02T04:54:57.109Z,2.51
2019-01-02T04:56:00.307Z,2.51
2019-01-02T04:57:03.854Z,2.49
2019-01-02T04:58:10.089Z,2.51
2019-01-02T04:59:12.920Z,2.47
2019-01-02T05:00:15.800Z,2.50
2019-01-02T05:01:18.813Z,2.50
2019-01-02T05:02:21.747Z,2.58
2019-01-02T05:03:25.159Z,2.58
2019-01-02T05:04:28.475Z,2.65
2019-01-02T05:05:31.698Z,2.68
2019-01-02T05:06:34.635Z,2.68
2019-01-02T05:07:37.578Z,2.68
2019-01-02T05:08:40.637Z,2.74
2019-01-02T05:09:43.896Z,2.74
2019-01-02T05:10:47.343Z,2.74
2019-01-02T05:11:50.118Z,2.75
2019-01-02T05:12:53.067Z,2.75
2019-01-02T05:13:56.035Z,2.74
2019-01-02T05:14:58.833Z,2.77
2019-01-02T05:16:01.614Z,2.74
2019-01-02T05:17:04.910Z,2.76
2019-01-02T05:18:07.766Z,2.76
2019-01-02T05:19:10.814Z,2.80
2019-01-02T05:20:13.593Z,2.83
2019-01-02T05:21:16.375Z,2.85
2019-01-02T05:22:19.670Z,2.84
2019-01-02T05:23:22.493Z,2.83
2019-01-02T05:24:25.325Z,2.85
2019-01-02T05:25:28.235Z,2.87
2019-01-02T05:26:31.024Z,2.88
2019-01-02T05:27:33.957Z,2.88
2019-01-02T05:28:37.347Z,2.89
2019-01-02T05:29:40.242Z,2.91
2019-01-02T05:30:43.468Z,2.94
2019-01-02T05:31:46.597Z,2.93
2019-01-02T05:32:49.569Z,2.94
2019-01-02T05:33:52.456Z,2.94
2019-01-02T05:34:55.682Z,2.94
2019-01-02T05:35:58.562Z,2.94
2019-01-02T05:37:01.591Z,2.94
2019-01-02T05:38:07.894Z,2.94
2019-01-02T05:39:10.750Z,2.89
2019-01-02T05:40:16.030Z,2.88
2019-01-02T05:41:20.759Z,2.89
2019-01-02T05:42:23.784Z,2.90
2019-01-02T05:43:26.667Z,2.89
2019-01-02T05:44:29.480Z,2.89
2019-01-02T05:45:32.385Z,2.91
2019-01-02T05:46:35.131Z,2.94
2019-01-02T05:47:38.399Z,2.89
2019-01-02T05:48:41.874Z,2.89
2019-01-02T05:49:44.771Z,2.90
2019-01-02T05:50:47.696Z,2.88
2019-01-02T05:51:50.705Z,2.85
2019-01-02T05:52:53.539Z,2.87
2019-01-02T05:53:56.779Z,2.92
2019-01-02T05:54:59.584Z,2.92
2019-01-02T05:56:02.411Z,2.92
2019-01-02T05:57:06.126Z,2.94
2019-01-02T05:58:11.779Z,2.95
2019-01-02T05:59:14.917Z,2.98
2019-01-02T06:00:17.853Z,2.93
2019-01-02T06:01:21.210Z,2.98
2019-01-02T06:02:24.226Z,2.92
2019-01-02T06:03:27.040Z,2.94
2019-01-02T06:04:29.952Z,2.94
2019-01-02T06:05:33.197Z,2.96
2019-01-02T06:06:36.188Z,2.97
2019-01-02T06:07:41.088Z,3.00
2019-01-02T06:08:43.533Z,2.96
2019-01-02T06:09:46.536Z,2.96
2019-01-02T06:10:49.438Z,2.98
2019-01-02T06:11:54.977Z,3.03
2019-01-02T06:12:57.941Z,3.05
2019-01-02T06:14:00.781Z,3.05
2019-01-02T06:15:03.599Z,3.04
2019-01-02T06:16:09.437Z,3.04
2019-01-02T06:17:12.206Z,3.04
2019-01-02T06:18:15.558Z,3.04
2019-01-02T06:19:18.474Z,3.05
2019-01-02T06:20:21.434Z,3.05
2019-01-02T06:21:24.239Z,3.03
2019-01-02T06:22:27.013Z,3.03
2019-01-02T06:23:29.940Z,3.04
2019-01-02T06:24:33.046Z,3.02
2019-01-02T06:25:36.117Z,3.04
2019-01-02T06:26:38.988Z,3.03
2019-01-02T06:27:41.919Z,3.02
2019-01-02T06:28:44.926Z,3.03
2019-01-02T06:29:48.469Z,3.02
2019-01-02T06:44:29.334Z,2.96
2019-01-02T06:45:32.310Z,2.91
2019-01-02T06:46:35.392Z,2.91
2019-01-02T06:47:38.306Z,2.90
2019-01-02T06:48:41.094Z,2.87
2019-01-02T06:49:44.316Z,2.87
2019-01-02T06:50:47.142Z,2.88
2019-01-02T06:51:50.110Z,2.83
2019-01-02T06:52:53.095Z,2.86
2019-01-02T06:54:03.582Z,2.88
2019-01-02T06:55:06.871Z,2.90
2019-01-02T06:56:09.739Z,2.91
2019-01-02T06:57:14.844Z,2.93
2019-01-02T06:58:18.782Z,2.93
2019-01-02T06:59:21.667Z,2.92
2019-01-02T07:00:24.574Z,2.95
2019-01-02T07:01:27.615Z,2.98
2019-01-02T07:02:30.501Z,2.97
2019-01-02T07:03:33.401Z,2.97
2019-01-02T07:04:36.397Z,2.95
2019-01-02T07:05:39.332Z,2.95
2019-01-02T07:06:42.214Z,2.93
2019-01-02T07:07:45.395Z,2.93
2019-01-02T07:08:48.277Z,2.93
2019-01-02T07:09:51.127Z,2.97
2019-01-02T07:10:53.920Z,2.96
2019-01-02T07:11:56.722Z,2.97
2019-01-02T07:12:59.769Z,2.97
2019-01-02T07:14:03.040Z,3.03
2019-01-02T07:15:05.854Z,3.09
2019-01-02T07:16:08.780Z,3.09
2019-01-02T07:17:11.548Z,3.13
2019-01-02T07:18:14.669Z,3.12
2019-01-02T07:19:17.592Z,3.12
2019-01-02T07:20:20.879Z,3.12
2019-01-02T07:21:23.717Z,3.10
2019-01-02T07:22:27.191Z,3.12
2019-01-02T07:23:29.978Z,3.14
2019-01-02T07:24:32.901Z,3.12
2019-01-02T07:25:35.675Z,3.10
2019-01-02T07:26:38.753Z,3.09
2019-01-02T07:27:41.565Z,3.10
2019-01-02T07:28:53.139Z,3.08
2019-01-02T07:30:04.842Z,3.11
2019-01-02T07:31:07.673Z,3.13
2019-01-02T07:32:10.455Z,3.09
2019-01-02T07:33:14.773Z,3.05
2019-01-02T07:34:17.551Z,3.05
2019-01-02T07:35:20.476Z,3.06
2019-01-02T07:36:23.341Z,3.08
2019-01-02T07:37:27.000Z,3.09
2019-01-02T07:38:30.353Z,3.09
2019-01-02T07:39:33.495Z,3.09
2019-01-02T07:40:36.342Z,3.10
2019-01-02T07:41:39.199Z,3.10
2019-01-02T07:42:44.272Z,3.09
2019-01-02T07:43:47.136Z,3.12
2019-01-02T07:44:50.145Z,3.12
2019-01-02T07:45:53.254Z,3.12
2019-01-02T07:46:56.032Z,3.12
2019-01-02T07:47:58.825Z,3.14
2019-01-02T07:49:01.675Z,3.13
2019-01-02T07:50:04.657Z,3.13
2019-01-02T07:51:07.565Z,3.14
2019-01-02T07:52:10.734Z,3.16
2019-01-02T07:53:13.497Z,3.15
2019-01-02T07:54:16.257Z,3.16
2019-01-02T07:55:19.042Z,3.16
2019-01-02T07:56:22.590Z,3.18
2019-01-02T07:57:26.631Z,3.21
2019-01-02T07:58:32.550Z,3.20
2019-01-02T07:59:35.594Z,3.21
2019-01-02T08:00:40.633Z,3.18
2019-01-02T08:01:43.523Z,3.20
2019-01-02T08:02:48.020Z,3.21
2019-01-02T08:03:57.239Z,3.18
2019-01-02T08:05:00.248Z,3.15
2019-01-02T08:06:03.069Z,3.14
2019-01-02T08:07:05.867Z,3.16
2019-01-02T08:08:08.770Z,3.15
2019-01-02T08:09:11.603Z,3.20
2019-01-02T08:10:18.070Z,3.21
2019-01-02T08:11:20.965Z,3.21
2019-01-02T08:12:23.891Z,3.28
2019-01-02T08:13:26.820Z,3.31
2019-01-02T08:14:30.076Z,3.31
2019-01-02T08:15:33.103Z,3.30
2019-01-02T08:16:36.261Z,3.31
2019-01-02T08:17:39.046Z,3.30
2019-01-02T08:18:41.980Z,3.28
2019-01-02T08:19:44.759Z,3.30
2019-01-02T08:20:47.600Z,3.31
2019-01-02T08:21:50.401Z,3.31
2019-01-02T08:22:53.481Z,3.31
2019-01-02T08:23:56.461Z,3.34
2019-01-02T08:24:59.327Z,3.29
2019-01-02T08:26:02.102Z,3.30
2019-01-02T08:27:07.410Z,3.30
2019-01-02T08:28:10.272Z,3.30
2019-01-02T08:29:13.377Z,3.34
2019-01-02T08:30:16.140Z,3.37
2019-01-02T08:31:19.463Z,3.36
2019-01-02T08:32:22.254Z,3.32
2019-01-02T08:33:25.045Z,3.35
2019-01-02T08:34:27.998Z,3.31
2019-01-02T08:35:31.198Z,3.31
2019-01-02T08:36:34.043Z,3.30
2019-01-02T08:37:38.747Z,3.30
2019-01-02T08:38:41.514Z,3.28
2019-01-02T08:39:47.714Z,3.37
2019-01-02T08:40:51.082Z,3.42
2019-01-02T08:41:54.254Z,3.42
2019-01-02T08:43:00.094Z,3.43
2019-01-02T08:44:02.915Z,3.41
2019-01-02T08:45:06.010Z,3.42
2019-01-02T08:46:08.882Z,3.44
2019-01-02T08:47:11.806Z,3.46
2019-01-02T08:48:15.221Z,3.48
2019-01-02T08:49:18.186Z,3.50
2019-01-02T08:50:25.255Z,3.50
2019-01-02T08:51:26.105Z,3.50
2019-01-02T08:52:32.261Z,3.48
2019-01-02T08:53:35.469Z,3.48
2019-01-02T08:54:39.801Z,3.45
2019-01-02T08:55:42.609Z,3.50
2019-01-02T08:56:48.536Z,3.52
2019-01-02T08:57:51.332Z,3.52
2019-01-02T08:58:54.237Z,3.51
2019-01-02T08:59:57.523Z,3.53
2019-01-02T09:01:00.713Z,3.53
2019-01-02T09:02:05.354Z,3.53
2019-01-02T09:03:08.710Z,3.52
2019-01-02T09:04:11.657Z,3.52
2019-01-02T09:05:14.478Z,3.55
2019-01-02T09:06:21.966Z,3.55
2019-01-02T09:07:24.872Z,3.50
2019-01-02T09:08:27.728Z,3.48
2019-01-02T09:09:30.523Z,3.44
2019-01-02T09:10:33.801Z,3.45
2019-01-02T09:11:36.581Z,3.41
2019-01-02T09:12:41.658Z,3.38
2019-01-02T09:13:44.759Z,3.39
2019-01-02T09:14:47.678Z,3.41
2019-01-02T09:15:50.893Z,3.40
2019-01-02T09:16:54.195Z,3.41
2019-01-02T09:17:57.084Z,3.40
2019-01-02T09:19:03.022Z,3.48
2019-01-02T09:20:06.287Z,3.48
2019-01-02T09:21:09.149Z,3.42
2019-01-02T09:22:14.861Z,3.43
2019-01-02T09:23:18.296Z,3.43
2019-01-02T09:24:21.629Z,3.46
2019-01-02T09:25:24.526Z,3.44
2019-01-02T09:26:27.796Z,3.45
2019-01-02T09:27:30.639Z,3.45
2019-01-02T09:28:41.137Z,3.45
2019-01-02T09:29:44.035Z,3.49
2019-01-02T09:30:46.909Z,3.49
2019-01-02T09:31:52.145Z,3.50
2019-01-02T09:32:55.781Z,3.49
2019-01-02T09:33:59.226Z,3.49
2019-01-02T09:35:04.073Z,3.54
2019-01-02T09:36:18.931Z,3.53
2019-01-02T09:37:21.698Z,3.55
2019-01-02T09:38:24.484Z,3.55
2019-01-02T09:39:27.702Z,3.56
2019-01-02T09:40:30.737Z,3.64
2019-01-02T09:41:33.563Z,3.60
2019-01-02T09:42:38.136Z,3.59
2019-01-02T09:43:41.064Z,3.55
2019-01-02T09:44:43.984Z,3.51
2019-01-02T09:45:47.071Z,3.52
2019-01-02T09:46:54.926Z,3.54
2019-01-02T09:48:00.338Z,3.54
2019-01-02T09:49:03.314Z,3.51
2019-01-02T09:50:06.339Z,3.48
2019-01-02T09:51:09.319Z,3.50
2019-01-02T09:52:12.518Z,3.50
2019-01-02T09:53:19.931Z,3.49
2019-01-02T09:54:23.271Z,3.50
2019-01-02T09:55:26.486Z,3.50
2019-01-02T09:56:29.336Z,3.59
2019-01-02T09:57:32.212Z,3.59
2019-01-02T09:58:35.370Z,3.62
2019-01-02T09:59:44.189Z,3.75
2019-01-02T10:00:50.240Z,3.75
2019-01-02T10:01:53.159Z,4.11
2019-01-02T10:02:56.012Z,4.23
2019-01-02T10:03:59.013Z,4.20
2019-01-02T10:05:02.173Z,4.15
2019-01-02T10:06:05.184Z,4.11
2019-01-02T10:07:08.078Z,4.10
2019-01-02T10:08:10.887Z,4.10
2019-01-02T10:09:17.918Z,4.06
2019-01-02T10:10:22.400Z,4.06
2019-01-02T10:11:25.770Z,4.09
2019-01-02T10:12:28.613Z,4.12
2019-01-02T10:13:31.812Z,4.09
2019-01-02T10:14:34.755Z,4.12
2019-01-02T10:15:37.535Z,4.13
2019-01-02T10:16:40.473Z,4.09
2019-01-02T10:17:43.651Z,4.07
2019-01-02T10:18:49.574Z,4.12
2019-01-02T10:19:52.412Z,4.17
2019-01-02T10:20:55.855Z,4.17
2019-01-02T10:21:58.800Z,4.29
2019-01-02T10:23:01.619Z,4.53
2019-01-02T10:24:11.331Z,5.11
2019-01-02T10:25:14.170Z,5.54
2019-01-02T10:26:17.031Z,5.54
2019-01-02T10:27:19.974Z,5.46
2019-01-02T10:28:22.855Z,5.41
2019-01-02T10:29:26.570Z,5.33
2019-01-02T10:30:29.673Z,5.33
2019-01-02T10:31:35.194Z,5.23
2019-01-02T10:32:37.989Z,5.02
2019-01-02T10:33:41.092Z,4.92
2019-01-02T10:34:43.855Z,4.78
2019-01-02T10:35:48.969Z,4.68
2019-01-02T10:37:15.341Z,4.57
2019-01-02T10:38:18.242Z,4.57
2019-01-02T10:39:21.086Z,4.60
2019-01-02T10:40:24.089Z,4.51
2019-01-02T10:41:31.191Z,4.53
2019-01-02T10:42:34.020Z,4.54
2019-01-02T10:43:37.400Z,4.54
2019-01-02T10:44:40.294Z,4.40
2019-01-02T10:45:43.200Z,4.34
2019-01-02T10:46:46.037Z,4.40
2019-01-02T10:47:49.116Z,4.40
2019-01-02T10:48:52.370Z,4.65
2019-01-02T10:49:55.217Z,5.07
2019-01-02T10:50:58.472Z,5.81
2019-01-02T10:52:01.256Z,6.45
2019-01-02T10:53:06.252Z,6.94
2019-01-02T10:54:10.174Z,7.34
2019-01-02T10:55:18.035Z,7.46
2019-01-02T10:56:20.839Z,7.21
2019-01-02T10:57:24.452Z,6.73
2019-01-02T10:58:27.685Z,6.73
2019-01-02T10:59:30.560Z,7.00
2019-01-02T11:00:33.417Z,6.99
2019-01-02T11:01:36.638Z,6.32
2019-01-02T11:02:42.162Z,6.08
2019-01-02T11:03:49.109Z,5.70
2019-01-02T11:04:51.703Z,5.56
2019-01-02T11:05:54.639Z,5.51
2019-01-02T11:06:57.518Z,5.54
2019-01-02T11:08:00.607Z,5.58
2019-01-02T11:09:04.415Z,5.58
2019-01-02T11:10:07.568Z,5.43
2019-01-02T11:11:10.406Z,5.43
2019-01-02T11:12:13.271Z,5.39
2019-01-02T11:13:16.482Z,5.20
2019-01-02T11:14:22.767Z,5.20
2019-01-02T11:15:26.699Z,5.15
2019-01-02T11:16:29.725Z,5.12
2019-01-02T11:17:32.815Z,5.14
2019-01-02T11:18:37.917Z,4.92
2019-01-02T11:19:40.773Z,4.79
2019-01-02T11:20:43.879Z,4.76
2019-01-02T11:21:46.679Z,4.76
2019-01-02T11:22:49.623Z,4.70
2019-01-02T11:24:02.239Z,4.70
2019-01-02T11:25:07.149Z,4.79
2019-01-02T11:26:10.621Z,4.79
2019-01-02T11:27:13.793Z,4.95
2019-01-02T11:28:16.817Z,5.02
2019-01-02T11:29:20.573Z,5.21
2019-01-02T11:43:08.097Z,6.78
2019-01-02T11:44:10.940Z,6.72
2019-01-02T11:45:14.332Z,6.35
2019-01-02T11:46:17.630Z,6.35
2019-01-02T11:47:20.518Z,6.84
2019-01-02T11:48:23.837Z,7.28
2019-01-02T11:49:26.849Z,7.45
2019-01-02T11:50:29.911Z,7.45
2019-01-02T11:51:32.806Z,8.26
2019-01-02T11:52:35.767Z,8.26
2019-01-02T11:53:38.797Z,7.73
2019-01-02T11:54:42.403Z,7.34
2019-01-02T11:55:45.472Z,6.83
2019-01-02T11:56:51.302Z,6.83
2019-01-02T11:57:54.703Z,6.57
2019-01-02T11:59:00.752Z,6.50
2019-01-02T12:00:04.409Z,6.64
2019-01-02T12:01:10.216Z,7.24
2019-01-02T12:02:13.195Z,7.68
2019-01-02T12:03:16.162Z,7.68
2019-01-02T12:04:20.585Z,7.42
2019-01-02T12:05:24.206Z,6.66
2019-01-02T12:06:27.130Z,6.29
2019-01-02T12:07:32.617Z,5.82
2019-01-02T12:08:35.466Z,5.70
2019-01-02T12:09:38.319Z,5.80
2019-01-02T12:10:44.091Z,6.11
2019-01-02T12:11:49.772Z,6.76
2019-01-02T12:12:58.067Z,7.37
2019-01-02T12:14:01.398Z,7.59
2019-01-02T12:15:04.574Z,7.93
2019-01-02T12:16:07.400Z,8.26
2019-01-02T12:17:10.450Z,7.80
2019-01-02T12:18:13.830Z,7.39
2019-01-02T12:19:20.101Z,6.97
2019-01-02T12:20:23.051Z,6.67
2019-01-02T12:21:25.941Z,6.58
2019-01-02T12:22:29.910Z,6.20
2019-01-02T12:23:33.128Z,6.02
2019-01-02T12:24:36.402Z,6.02
2019-01-02T12:25:39.755Z,5.66
2019-01-02T12:26:47.791Z,5.72
2019-01-02T12:27:51.366Z,5.73
2019-01-02T12:28:54.322Z,5.67
2019-01-02T12:29:57.524Z,5.94
2019-01-02T12:31:00.314Z,5.98
2019-01-02T12:32:03.583Z,6.51
2019-01-02T12:33:06.840Z,6.98
2019-01-02T12:34:15.289Z,7.03
2019-01-02T12:35:20.806Z,7.03
2019-01-02T12:36:23.984Z,7.12
2019-01-02T12:37:27.015Z,6.72
2019-01-02T12:38:31.914Z,6.72
2019-01-02T12:39:40.419Z,6.44
2019-01-02T12:40:42.893Z,6.44
2019-01-02T12:41:46.040Z,6.64
2019-01-02T12:42:49.442Z,7.25
2019-01-02T12:43:52.518Z,7.26
2019-01-02T12:44:55.480Z,7.57
2019-01-02T12:45:58.332Z,7.86
2019-01-02T12:47:01.261Z,8.23
2019-01-02T12:48:04.206Z,8.23
2019-01-02T12:49:07.389Z,7.07
2019-01-02T12:50:10.801Z,6.98
2019-01-02T12:51:13.612Z,7.32
2019-01-02T12:52:16.548Z,7.32
2019-01-02T12:53:19.874Z,7.33
2019-01-02T12:54:23.614Z,6.91
2019-01-02T12:55:26.727Z,6.53
2019-01-02T12:56:30.509Z,6.46
2019-01-02T12:57:33.427Z,6.60
2019-01-02T12:58:39.025Z,6.46
2019-01-02T12:59:42.053Z,6.31
2019-01-02T13:00:44.938Z,6.28
2019-01-02T13:01:50.460Z,6.60
2019-01-02T13:02:53.674Z,6.86
2019-01-02T13:04:06.033Z,7.43
2019-01-02T13:05:12.689Z,7.79
2019-01-02T13:06:15.625Z,8.01
2019-01-02T13:07:19.815Z,7.71
2019-01-02T13:08:25.759Z,7.71
2019-01-02T13:11:26.111Z,8.56
2019-01-02T13:12:37.624Z,8.73
2019-01-02T13:13:45.932Z,8.89
2019-01-02T13:14:53.703Z,9.00
2019-01-02T13:15:59.143Z,8.88
2019-01-02T13:17:12.794Z,8.88
2019-01-02T13:18:15.882Z,9.13
2019-01-02T13:19:18.680Z,8.88
2019-01-02T13:20:21.646Z,8.71
2019-01-02T13:21:26.378Z,8.85
2019-01-02T13:22:29.197Z,8.87
2019-01-02T13:23:32.037Z,8.44
2019-01-02T13:24:35.259Z,8.39
2019-01-02T13:25:38.198Z,8.39
2019-01-02T13:26:43.326Z,8.32
2019-01-02T13:27:48.943Z,8.33
2019-01-02T13:28:52.461Z,8.40
2019-01-02T13:29:55.288Z,8.33
2019-01-02T13:30:58.193Z,8.20
2019-01-02T13:32:01.599Z,8.20
2019-01-02T13:33:04.388Z,8.58
2019-01-02T13:34:10.224Z,8.33
2019-01-02T13:35:13.040Z,7.82
2019-01-02T13:36:15.917Z,7.77
2019-01-02T13:37:18.949Z,7.45
2019-01-02T13:38:21.988Z,7.38
2019-01-02T13:39:25.008Z,7.56
2019-01-02T13:40:28.199Z,7.56
2019-01-02T13:41:30.995Z,7.56
2019-01-02T13:42:34.372Z,7.17
2019-01-02T13:43:39.887Z,7.06
2019-01-02T13:44:42.821Z,6.84
2019-01-02T13:45:48.668Z,6.84
2019-01-02T13:47:01.557Z,7.06
2019-01-02T13:48:06.740Z,7.44
2019-01-02T13:49:09.727Z,7.74
2019-01-02T13:50:14.773Z,7.74
2019-01-02T13:51:17.754Z,7.57
2019-01-02T13:52:22.249Z,7.87
2019-01-02T13:53:25.364Z,7.42
2019-01-02T13:54:28.229Z,7.42
2019-01-02T13:55:31.092Z,7.12
2019-01-02T13:56:36.709Z,6.77
2019-01-02T13:57:39.575Z,6.77
2019-01-02T13:58:44.870Z,6.45
2019-01-02T13:59:49.923Z,6.35
2019-01-02T14:00:55.038Z,6.17
2019-01-02T14:02:09.118Z,6.00
2019-01-02T14:03:12.117Z,6.00
2019-01-02T14:04:14.963Z,5.80
2019-01-02T14:05:17.923Z,5.96
2019-01-02T14:06:20.877Z,5.78
2019-01-02T14:07:28.675Z,5.97
2019-01-02T14:08:31.665Z,6.04
2019-01-02T14:09:34.552Z,6.12
2019-01-02T14:10:37.481Z,6.10
2019-01-02T14:11:42.930Z,6.13
2019-01-02T14:12:45.787Z,6.26
2019-01-02T14:13:52.292Z,6.22
2019-01-02T14:14:55.833Z,6.34
2019-01-02T14:16:00.567Z,6.27
2019-01-02T14:17:05.387Z,6.29
2019-01-02T14:18:17.243Z,6.21
2019-01-02T14:19:20.149Z,6.41
2019-01-02T14:20:23.942Z,6.39
2019-01-02T14:21:29.620Z,6.40
2019-01-02T14:22:39.753Z,6.40
2019-01-02T14:23:50.809Z,6.30
2019-01-02T14:24:56.232Z,6.30
2019-01-02T14:25:58.788Z,6.41
2019-01-02T14:27:01.792Z,6.45
2019-01-02T14:28:04.644Z,6.33
2019-01-02T14:29:11.520Z,6.16
2019-01-02T14:30:24.131Z,6.16
2019-01-02T14:31:27.236Z,5.94
2019-01-02T14:32:33.096Z,5.94
2019-01-02T14:33:37.377Z,5.82
2019-01-02T14:34:40.278Z,5.68
2019-01-02T14:35:44.518Z,5.50